AirNav   Pilot Hours Calculator
 
 1243 users online  

98NH Skybast Heliport
Northwood, New Hampshire, USA

GOING TO NORTHWOOD?


FAA INFORMATION EFFECTIVE 02 JANUARY 2020

Location

FAA Identifier: 98NH
Lat/Long: 43-12-40.4900N 071-14-24.3300W
43-12.674833N 071-14.405500W
43.2112472,-71.2400917
(estimated)
Elevation: 565 ft. / 172 m (estimated)
From city: 1 mile S of NORTHWOOD, NH
Time zone: UTC -5 (UTC -4 during Daylight Saving Time)
Zip code: 03261

Heliport Operations

Heliport use: Private use. Permission required prior to landing
Activation date: 11/2005
Control tower: no
ARTCC: BOSTON CENTER
FSS: BANGOR FLIGHT SERVICE STATION
Attendance: UNATNDD
Wind indicator: yes, WINDSOCK
Segmented circle: no

Heliport Communications

UNICOM: 123.05
WX ASOS at CON (11 nm W): 132.325 (603-224-6558)
WX ASOS at DAW (14 nm E): 135.275 (603-332-7814)
WX ASOS at MHT (19 nm SW): 119.55 (603-621-1766)

Nearby radio navigation aids

VOR radial/distance  VOR name  Freq  Var
CONr107/14.7CONCORD VOR/DME112.9015W
PSMr309/19.4PEASE VOR/DME116.5016W
MHTr030/21.3MANCHESTER VOR/DME114.4015W
LWMr002/29.0LAWRENCE VOR/DME112.5015W
ENEr262/30.2KENNEBUNK VOR/DME117.1017W

 
NDB name  Hdg/Dist  Freq  Var  ID
EPSOM075/10.821616WCO -.-. ---
ROLLINS284/18.026016WESG . ... --.

Heliport Services

Runway Information

Helipad H1

Dimensions: 50 x 40 ft. / 15 x 12 m
Surface: asphalt
Traffic pattern: leftleft

Heliport Ownership and Management from official FAA records

Ownership: Privately-owned
Owner: DOUGLAS BABCOCK
365 LUCAS ROAD
MANCHESTER, NH 03109
Phone 603-645-5278
Manager: DOUGLAS BABCOCK
365 LUCAS ROAD
MANCHESTER, NH 03109
Phone 603-645-5278

Heliport Operational Statistics

Aircraft based on the field: 1
Helicopters: 1
    

Additional Remarks

A52-H1 90 FT TREES ALL QUADRANTS; 996 FT LIGHTED TOWER 2.6 NM SOUTH; & 1144 FT LIGHTED TOWER 3.8 NM WEST OF PAD.
FOR CD CTC BOSTON APCH AT 603-594-5551.

Instrument Procedures

There are no published instrument procedures at 98NH.

Some nearby airports with instrument procedures:

KCON - Concord Municipal Airport (11 nm W)
KDAW - Skyhaven Airport (14 nm E)
KMHT - Manchester Airport (19 nm SW)
KPSM - Portsmouth International Airport at Pease (20 nm SE)
3B4 - Littlebrook Air Park (21 nm E)
 
Loc | Ops | Rwys | IFR | FBO | Links
Com | Nav | Svcs | Stats | Notes
Area around 98NH (Skybast Heliport)
 
Road maps at: MapQuest Bing Google
 
Aerial photo
WARNING: Photo may not be current or correct
Aerial photo of 98NH (Skybast Heliport)
Do you have a better or more recent aerial photo of Skybast Heliport that you would like to share? If so, please send us your photo.

 
Sectional chart

 
Airport distance calculator
Flying to Skybast Heliport? Find the distance to fly.

From to 98NH

Sunrise and sunset
Times for 26-Jan-2020
 Local
(UTC-5)
 Zulu
(UTC)
Morning civil twilight06:3711:37
Sunrise07:0812:08
Sunset16:4821:48
Evening civil twilight17:1822:18

Current date and time
Zulu (UTC)  27-Jan-2020 00:50:09
Local (UTC-5)  26-Jan-2020 19:50:09
 
METAR
KCON 
11nm W 
262351Z AUTO 00000KT 10SM CLR 02/M04 A2964 RMK AO2 SLP041 T00171039 10083 20017 51009
KDAW 
15nm E 
262351Z AUTO 00000KT 10SM CLR 03/M04 A2962 RMK AO2 SLP030 T00281039 10083 20022 51011
KMHT 
19nm SW 
262353Z 25003KT 10SM FEW050 04/M03 A2965 RMK AO2 SLP056 T00441033 10089 20044 51010
KPSM 
20nm SE 
262356Z 24005KT 10SM FEW055 03/M04 A2963 RMK AO2A SLP037 T00311041 10087 20031 52013
KLCI 
23nm N 
262356Z AUTO 23009KT 10SM CLR 02/M03 A2962 RMK AO2 SLP034 T00171028 10067 20017 51007 FZRANO
TAF
KCON 
11nm W 
261720Z 2618/2718 28010KT P6SM SCT030 FM270200 23003KT P6SM BKN100
KMHT 
19nm SW 
261720Z 2618/2718 28010KT P6SM FEW030 FM270200 22003KT P6SM BKN100
NOTAMs
Click for the latest NOTAMs
NOTAMs are issued by the DoD/FAA and will open in a separate window not controlled by AirNav.

 

 
 

Would you like to see your business listed on this page?

 If your business provides an interesting product or service to pilots, flight crews, aircraft, or users of the Skybast Heliport, you should consider listing it here.  To start the listing process, click on the button below
 
Add a business
 

Other Pages about Skybast Heliport

Update a link
 
Copyright © AirNav, LLC. All rights reserved. Privacy Policy  Contact